createdAt,value
2017-03-11T00:00:14.457Z,0
2017-03-11T00:05:11.370Z,0
2017-03-11T00:10:07.777Z,0
2017-03-11T00:15:04.060Z,0
2017-03-11T00:20:00.971Z,0
2017-03-11T00:24:58.452Z,0
2017-03-11T00:29:55.037Z,0
2017-03-11T00:34:51.961Z,0
2017-03-11T00:39:49.708Z,0
2017-03-11T00:44:46.020Z,0
2017-03-11T00:49:42.442Z,0
2017-03-11T00:54:38.438Z,0
2017-03-11T00:59:35.300Z,0
2017-03-11T01:04:32.571Z,0
2017-03-11T01:09:29.655Z,0
2017-03-11T01:14:26.221Z,0
2017-03-11T01:19:25.700Z,0
2017-03-11T01:24:21.383Z,0
2017-03-11T01:29:18.053Z,0
2017-03-11T01:34:14.881Z,0
2017-03-11T01:39:11.427Z,0
2017-03-11T01:44:09.199Z,0
2017-03-11T01:49:06.522Z,0
2017-03-11T01:54:02.744Z,0
2017-03-11T01:58:59.822Z,0
2017-03-11T02:03:56.381Z,0
2017-03-11T02:08:52.936Z,0
2017-03-11T02:13:49.924Z,0
2017-03-11T02:18:46.564Z,0
2017-03-11T02:23:42.549Z,0
2017-03-11T02:28:39.028Z,0
2017-03-11T02:33:35.473Z,0
2017-03-11T02:38:31.781Z,0
2017-03-11T02:43:27.942Z,0
2017-03-11T02:48:24.183Z,0
2017-03-11T02:53:21.673Z,0
2017-03-11T02:58:17.663Z,0
2017-03-11T03:03:13.819Z,0
2017-03-11T03:08:10.165Z,0
2017-03-11T03:13:06.862Z,0
2017-03-11T03:18:03.241Z,0
2017-03-11T03:22:59.680Z,0
2017-03-11T03:27:55.986Z,0
2017-03-11T03:32:52.225Z,0
2017-03-11T03:37:48.823Z,0
2017-03-11T03:42:45.105Z,0
2017-03-11T03:47:41.885Z,0
2017-03-11T03:52:38.366Z,0
2017-03-11T03:57:34.726Z,0
2017-03-11T04:02:31.121Z,0
2017-03-11T04:07:27.467Z,0
2017-03-11T04:12:24.132Z,0
2017-03-11T04:17:20.555Z,0
2017-03-11T04:22:17.267Z,0
2017-03-11T04:27:13.648Z,0
2017-03-11T04:32:10.107Z,0
2017-03-11T04:37:07.329Z,0
2017-03-11T04:42:03.752Z,0
2017-03-11T04:47:00.347Z,0
2017-03-11T04:51:56.620Z,0
2017-03-11T04:56:53.070Z,0
2017-03-11T05:01:49.740Z,0
2017-03-11T05:06:46.095Z,0
2017-03-11T05:11:43.634Z,0
2017-03-11T05:16:39.933Z,0
2017-03-11T05:21:37.143Z,0
2017-03-11T05:26:34.251Z,4
2017-03-11T05:31:31.170Z,8
2017-03-11T05:36:27.579Z,20
2017-03-11T05:41:23.773Z,44
2017-03-11T05:46:20.750Z,88
2017-03-11T05:51:17.455Z,156
2017-03-11T05:56:13.892Z,252
2017-03-11T06:01:10.285Z,368
2017-03-11T06:06:07.393Z,496
2017-03-11T06:11:03.951Z,632
2017-03-11T06:16:00.554Z,760
2017-03-11T06:20:57.092Z,928
2017-03-11T06:25:53.460Z,1092
2017-03-11T06:30:51.219Z,1236
2017-03-11T06:35:47.685Z,1328
2017-03-11T06:40:43.889Z,1428
2017-03-11T06:45:40.689Z,1500
2017-03-11T06:50:37.161Z,1544
2017-03-11T06:55:33.820Z,1768
2017-03-11T07:00:30.649Z,1836
2017-03-11T07:05:27.290Z,2136
2017-03-11T07:10:24.039Z,2688
2017-03-11T07:15:20.739Z,3240
2017-03-11T07:20:18.504Z,3436
2017-03-11T07:25:15.274Z,3716
2017-03-11T07:30:12.115Z,4788
2017-03-11T07:35:09.155Z,4720
2017-03-11T07:40:06.814Z,4180
2017-03-11T07:45:03.640Z,3864
2017-03-11T07:50:00.374Z,3964
2017-03-11T07:54:57.431Z,4580
2017-03-11T07:59:53.992Z,5048
2017-03-11T08:04:50.821Z,4696
2017-03-11T08:09:47.592Z,5540
2017-03-11T08:14:44.260Z,4916
2017-03-11T08:19:41.258Z,5208
2017-03-11T08:24:38.168Z,5180
2017-03-11T08:29:34.603Z,5236
2017-03-11T08:34:31.471Z,7768
2017-03-11T08:39:29.385Z,7216
2017-03-11T08:44:25.945Z,11548
2017-03-11T08:49:22.637Z,18656
2017-03-11T08:54:19.726Z,8052
2017-03-11T08:59:16.613Z,4848
2017-03-11T09:04:12.855Z,6356
2017-03-11T09:09:09.266Z,10004
2017-03-11T09:14:06.021Z,5916
2017-03-11T09:19:02.779Z,10192
2017-03-11T09:23:59.126Z,21504
2017-03-11T09:28:56.388Z,10156
2017-03-11T09:33:53.198Z,16476
2017-03-11T09:38:50.248Z,11096
2017-03-11T09:43:47.324Z,17632
2017-03-11T09:48:44.565Z,13148
2017-03-11T09:53:41.395Z,15744
2017-03-11T09:58:38.754Z,14560
2017-03-11T10:03:35.328Z,9428
2017-03-11T10:08:31.865Z,13284
2017-03-11T10:13:28.744Z,12272
2017-03-11T10:18:25.685Z,13112
2017-03-11T10:23:22.634Z,15424
2017-03-11T10:28:19.644Z,13100
2017-03-11T10:33:16.025Z,10992
2017-03-11T10:38:13.026Z,18080
2017-03-11T10:43:09.711Z,17120
2017-03-11T10:48:07.081Z,15216
2017-03-11T10:53:04.793Z,18432
2017-03-11T10:58:01.558Z,20288
2017-03-11T11:02:58.452Z,20576
2017-03-11T11:07:56.150Z,24352
2017-03-11T11:12:53.971Z,31968
2017-03-11T11:17:51.383Z,37312
2017-03-11T11:22:48.975Z,42592
2017-03-11T11:27:46.366Z,40768
2017-03-11T11:32:43.740Z,41248
2017-03-11T11:37:41.279Z,36512
2017-03-11T11:42:38.016Z,42464
2017-03-11T11:47:35.153Z,45280
2017-03-11T11:52:31.988Z,48288
2017-03-11T11:57:28.987Z,43808
2017-03-11T12:02:25.672Z,42656
2017-03-11T12:07:22.686Z,39616
2017-03-11T12:12:18.470Z,36160
2017-03-11T12:17:14.863Z,29952
2017-03-11T12:22:11.338Z,22208
2017-03-11T12:27:07.275Z,18560
2017-03-11T12:32:02.633Z,17312
2017-03-11T12:36:59.169Z,18688
2017-03-11T12:41:55.552Z,19936
2017-03-11T12:46:52.038Z,17440
2017-03-11T12:51:48.734Z,21248
2017-03-11T12:56:45.166Z,17920
2017-03-11T13:01:41.839Z,16480
2017-03-11T13:06:39.113Z,18944
2017-03-11T13:11:35.744Z,28864
2017-03-11T13:16:33.493Z,12772
2017-03-11T13:21:29.963Z,20448
2017-03-11T13:26:26.915Z,27840
2017-03-11T13:31:24.073Z,37120
2017-03-11T13:36:20.921Z,22048
2017-03-11T13:41:17.037Z,17472
2017-03-11T13:46:13.683Z,12328
2017-03-11T13:51:10.097Z,9928
2017-03-11T13:56:06.983Z,22592
2017-03-11T14:01:03.623Z,9332
2017-03-11T14:06:00.001Z,8264
2017-03-11T14:10:56.398Z,7400
2017-03-11T14:15:53.875Z,7052
2017-03-11T14:20:51.341Z,6984
2017-03-11T14:25:48.377Z,7000
2017-03-11T14:30:44.600Z,6660
2017-03-11T14:35:40.723Z,6388
2017-03-11T14:40:37.747Z,6240
2017-03-11T14:45:34.468Z,6076
2017-03-11T14:50:30.684Z,5640
2017-03-11T14:55:27.565Z,5804
2017-03-11T15:00:24.695Z,6092
2017-03-11T15:05:21.466Z,6176
2017-03-11T15:10:17.787Z,5828
2017-03-11T15:15:14.068Z,5756
2017-03-11T15:20:10.522Z,4904
2017-03-11T15:25:07.007Z,4700
2017-03-11T15:30:03.485Z,4356
2017-03-11T15:35:00.429Z,4328
2017-03-11T15:39:57.062Z,3960
2017-03-11T15:44:55.873Z,3688
2017-03-11T15:49:51.521Z,3596
2017-03-11T15:54:48.170Z,3448
2017-03-11T15:59:44.854Z,3312
2017-03-11T16:04:41.506Z,3064
2017-03-11T16:09:38.308Z,2824
2017-03-11T16:14:35.586Z,2560
2017-03-11T16:19:32.403Z,2408
2017-03-11T16:24:29.094Z,2348
2017-03-11T16:29:26.221Z,2212
2017-03-11T16:34:22.855Z,2000
2017-03-11T16:39:19.524Z,1732
2017-03-11T16:44:15.982Z,1464
2017-03-11T16:49:12.386Z,1228
2017-03-11T16:54:09.082Z,1060
2017-03-11T16:59:05.462Z,840
2017-03-11T17:04:02.984Z,640
2017-03-11T17:08:59.581Z,472
2017-03-11T17:13:56.255Z,344
2017-03-11T17:18:52.883Z,240
2017-03-11T17:23:50.022Z,160
2017-03-11T17:28:46.784Z,104
2017-03-11T17:33:42.942Z,64
2017-03-11T17:38:39.161Z,32
2017-03-11T17:43:35.754Z,16
2017-03-11T17:48:32.522Z,4
2017-03-11T17:53:29.034Z,4
2017-03-11T17:58:25.688Z,0
2017-03-11T18:03:22.041Z,0
2017-03-11T18:08:18.825Z,0
2017-03-11T18:13:15.644Z,0
2017-03-11T18:18:12.066Z,0
2017-03-11T18:23:08.677Z,0
2017-03-11T18:28:06.857Z,0
2017-03-11T18:33:03.083Z,0
2017-03-11T18:37:59.872Z,0
2017-03-11T18:42:56.148Z,0
2017-03-11T18:47:52.270Z,0
2017-03-11T18:52:49.330Z,0
2017-03-11T18:57:45.977Z,0
2017-03-11T19:02:42.320Z,0
2017-03-11T19:07:38.786Z,0
2017-03-11T19:12:35.501Z,0
2017-03-11T19:17:31.791Z,0
2017-03-11T19:22:28.538Z,0
2017-03-11T19:27:24.934Z,0
2017-03-11T19:32:21.453Z,0
2017-03-11T19:37:18.701Z,0
2017-03-11T19:42:15.316Z,0
2017-03-11T19:47:11.848Z,0
2017-03-11T19:52:08.417Z,0
2017-03-11T19:57:05.863Z,0
2017-03-11T20:02:02.269Z,0
2017-03-11T20:06:59.240Z,0
2017-03-11T20:11:56.016Z,0
2017-03-11T20:16:52.203Z,0
2017-03-11T20:21:49.037Z,0
2017-03-11T20:26:45.618Z,0
2017-03-11T20:31:41.870Z,0
2017-03-11T20:36:38.987Z,0
2017-03-11T20:41:35.220Z,0
2017-03-11T20:46:32.134Z,0
2017-03-11T20:51:28.599Z,0
2017-03-11T20:56:25.360Z,0
2017-03-11T21:01:21.439Z,0
2017-03-11T21:06:17.870Z,0
2017-03-11T21:11:14.476Z,0
2017-03-11T21:16:11.088Z,0
2017-03-11T21:21:07.901Z,0
2017-03-11T21:26:04.419Z,0
2017-03-11T21:31:00.841Z,0
2017-03-11T21:35:58.723Z,0
2017-03-11T21:40:55.139Z,0
2017-03-11T21:45:56.222Z,0
2017-03-11T21:50:51.682Z,0
2017-03-11T21:55:48.082Z,0
2017-03-11T22:00:44.502Z,0
2017-03-11T22:05:41.502Z,0
2017-03-11T22:10:37.794Z,0
2017-03-11T22:15:34.464Z,0
2017-03-11T22:20:30.943Z,0
2017-03-11T22:25:27.383Z,0
2017-03-11T22:30:23.604Z,0
2017-03-11T22:35:20.540Z,0
2017-03-11T22:40:17.124Z,0
2017-03-11T22:45:13.643Z,0
2017-03-11T22:50:10.285Z,0
2017-03-11T22:55:07.046Z,0
2017-03-11T23:00:03.484Z,0
2017-03-11T23:05:00.148Z,0
2017-03-11T23:09:56.767Z,0
2017-03-11T23:14:53.245Z,0
2017-03-11T23:19:49.714Z,0
2017-03-11T23:24:46.386Z,0
2017-03-11T23:29:42.757Z,0
2017-03-11T23:34:39.482Z,0
2017-03-11T23:39:35.948Z,0
2017-03-11T23:44:32.406Z,0
2017-03-11T23:49:29.670Z,0
2017-03-11T23:54:26.246Z,0
2017-03-11T23:59:22.604Z,0
